sensor_id;sensor_type;location;lat;lon;timestamp;P1;durP1;ratioP1;P2;durP2;ratioP2
55067;SDS011;40965;52.368;9.712;2023-04-23T00:01:42;6.18;;;2.92;;
55067;SDS011;40965;52.368;9.712;2023-04-23T00:04:08;2.83;;;2.63;;
55067;SDS011;40965;52.368;9.712;2023-04-23T00:06:38;3.17;;;2.25;;
55067;SDS011;40965;52.368;9.712;2023-04-23T00:09:07;2.60;;;2.40;;
55067;SDS011;40965;52.368;9.712;2023-04-23T00:11:35;2.35;;;2.22;;
55067;SDS011;40965;52.368;9.712;2023-04-23T00:14:01;2.75;;;2.45;;
55067;SDS011;40965;52.368;9.712;2023-04-23T00:16:28;3.33;;;3.03;;
55067;SDS011;40965;52.368;9.712;2023-04-23T00:18:55;2.90;;;2.33;;
55067;SDS011;40965;52.368;9.712;2023-04-23T00:21:21;2.72;;;2.53;;
55067;SDS011;40965;52.368;9.712;2023-04-23T00:23:48;3.40;;;3.10;;
55067;SDS011;40965;52.368;9.712;2023-04-23T00:26:14;3.38;;;3.13;;
55067;SDS011;40965;52.368;9.712;2023-04-23T00:28:42;4.32;;;3.30;;
55067;SDS011;40965;52.368;9.712;2023-04-23T00:31:08;3.45;;;3.15;;
55067;SDS011;40965;52.368;9.712;2023-04-23T00:33:35;2.95;;;2.75;;
55067;SDS011;40965;52.368;9.712;2023-04-23T00:36:02;2.85;;;2.65;;
55067;SDS011;40965;52.368;9.712;2023-04-23T00:38:29;3.55;;;3.05;;
55067;SDS011;40965;52.368;9.712;2023-04-23T00:40:55;3.30;;;3.03;;
55067;SDS011;40965;52.368;9.712;2023-04-23T00:43:22;2.88;;;2.53;;
55067;SDS011;40965;52.368;9.712;2023-04-23T00:45:48;3.83;;;2.90;;
55067;SDS011;40965;52.368;9.712;2023-04-23T00:48:15;2.60;;;2.38;;
55067;SDS011;40965;52.368;9.712;2023-04-23T00:50:42;3.17;;;2.75;;
55067;SDS011;40965;52.368;9.712;2023-04-23T00:53:08;3.00;;;2.80;;
55067;SDS011;40965;52.368;9.712;2023-04-23T00:55:35;3.25;;;2.95;;
55067;SDS011;40965;52.368;9.712;2023-04-23T00:58:01;3.05;;;2.85;;
55067;SDS011;40965;52.368;9.712;2023-04-23T01:00:28;5.25;;;2.63;;
55067;SDS011;40965;52.368;9.712;2023-04-23T01:02:55;2.15;;;2.05;;
55067;SDS011;40965;52.368;9.712;2023-04-23T01:05:22;5.82;;;2.83;;
55067;SDS011;40965;52.368;9.712;2023-04-23T01:07:49;5.07;;;3.22;;
55067;SDS011;40965;52.368;9.712;2023-04-23T01:10:15;3.05;;;2.85;;
55067;SDS011;40965;52.368;9.712;2023-04-23T01:12:42;3.40;;;3.05;;
55067;SDS011;40965;52.368;9.712;2023-04-23T01:15:09;2.83;;;2.55;;
55067;SDS011;40965;52.368;9.712;2023-04-23T01:17:35;5.30;;;4.30;;
55067;SDS011;40965;52.368;9.712;2023-04-23T01:20:02;5.40;;;4.70;;
55067;SDS011;40965;52.368;9.712;2023-04-23T01:22:30;6.07;;;5.57;;
55067;SDS011;40965;52.368;9.712;2023-04-23T01:24:59;6.45;;;5.85;;
55067;SDS011;40965;52.368;9.712;2023-04-23T01:27:26;6.88;;;5.80;;
55067;SDS011;40965;52.368;9.712;2023-04-23T01:29:53;6.45;;;5.80;;
55067;SDS011;40965;52.368;9.712;2023-04-23T01:32:20;7.57;;;6.88;;
55067;SDS011;40965;52.368;9.712;2023-04-23T01:34:46;8.35;;;7.55;;
55067;SDS011;40965;52.368;9.712;2023-04-23T01:37:14;8.38;;;7.57;;
55067;SDS011;40965;52.368;9.712;2023-04-23T01:39:41;7.00;;;6.40;;
55067;SDS011;40965;52.368;9.712;2023-04-23T01:42:08;7.72;;;7.03;;
55067;SDS011;40965;52.368;9.712;2023-04-23T01:44:35;9.23;;;8.25;;
55067;SDS011;40965;52.368;9.712;2023-04-23T01:47:01;10.05;;;9.05;;
55067;SDS011;40965;52.368;9.712;2023-04-23T01:49:28;10.77;;;8.90;;
55067;SDS011;40965;52.368;9.712;2023-04-23T01:51:56;11.15;;;9.10;;
55067;SDS011;40965;52.368;9.712;2023-04-23T01:54:22;10.20;;;9.07;;
55067;SDS011;40965;52.368;9.712;2023-04-23T01:56:49;10.15;;;8.73;;
55067;SDS011;40965;52.368;9.712;2023-04-23T01:59:18;11.93;;;10.70;;
55067;SDS011;40965;52.368;9.712;2023-04-23T02:01:47;12.95;;;11.32;;
55067;SDS011;40965;52.368;9.712;2023-04-23T02:04:14;12.82;;;10.82;;
55067;SDS011;40965;52.368;9.712;2023-04-23T02:06:41;14.93;;;11.23;;
55067;SDS011;40965;52.368;9.712;2023-04-23T02:09:12;13.23;;;11.93;;
55067;SDS011;40965;52.368;9.712;2023-04-23T02:11:38;12.90;;;11.60;;
55067;SDS011;40965;52.368;9.712;2023-04-23T02:14:05;14.73;;;12.35;;
55067;SDS011;40965;52.368;9.712;2023-04-23T02:16:32;15.85;;;12.10;;
55067;SDS011;40965;52.368;9.712;2023-04-23T02:18:59;15.48;;;12.02;;
55067;SDS011;40965;52.368;9.712;2023-04-23T02:21:26;16.20;;;13.45;;
55067;SDS011;40965;52.368;9.712;2023-04-23T02:23:53;17.67;;;13.57;;
55067;SDS011;40965;52.368;9.712;2023-04-23T02:26:20;18.27;;;13.88;;
55067;SDS011;40965;52.368;9.712;2023-04-23T02:28:48;19.40;;;13.88;;
55067;SDS011;40965;52.368;9.712;2023-04-23T02:31:15;20.30;;;15.15;;
55067;SDS011;40965;52.368;9.712;2023-04-23T02:33:44;18.85;;;14.10;;
55067;SDS011;40965;52.368;9.712;2023-04-23T02:36:11;17.77;;;13.98;;
55067;SDS011;40965;52.368;9.712;2023-04-23T02:38:37;20.60;;;14.95;;
55067;SDS011;40965;52.368;9.712;2023-04-23T02:41:05;21.92;;;15.90;;
55067;SDS011;40965;52.368;9.712;2023-04-23T02:43:32;22.98;;;16.05;;
55067;SDS011;40965;52.368;9.712;2023-04-23T02:45:58;19.90;;;15.05;;
55067;SDS011;40965;52.368;9.712;2023-04-23T02:48:31;21.98;;;16.52;;
55067;SDS011;40965;52.368;9.712;2023-04-23T02:51:07;22.27;;;16.73;;
55067;SDS011;40965;52.368;9.712;2023-04-23T02:53:36;21.35;;;16.88;;
55067;SDS011;40965;52.368;9.712;2023-04-23T02:56:03;21.15;;;16.25;;
55067;SDS011;40965;52.368;9.712;2023-04-23T02:58:30;22.95;;;16.10;;
55067;SDS011;40965;52.368;9.712;2023-04-23T03:00:56;23.00;;;17.40;;
55067;SDS011;40965;52.368;9.712;2023-04-23T03:03:25;22.38;;;17.23;;
55067;SDS011;40965;52.368;9.712;2023-04-23T03:05:55;22.85;;;17.13;;
55067;SDS011;40965;52.368;9.712;2023-04-23T03:08:23;25.02;;;17.98;;
55067;SDS011;40965;52.368;9.712;2023-04-23T03:10:49;25.05;;;18.77;;
55067;SDS011;40965;52.368;9.712;2023-04-23T03:13:16;23.17;;;16.83;;
55067;SDS011;40965;52.368;9.712;2023-04-23T03:15:42;25.58;;;18.63;;
55067;SDS011;40965;52.368;9.712;2023-04-23T03:18:09;26.50;;;18.25;;
55067;SDS011;40965;52.368;9.712;2023-04-23T03:20:36;26.17;;;18.85;;
55067;SDS011;40965;52.368;9.712;2023-04-23T03:23:02;25.27;;;18.05;;
55067;SDS011;40965;52.368;9.712;2023-04-23T03:25:30;24.20;;;17.33;;
55067;SDS011;40965;52.368;9.712;2023-04-23T03:27:58;28.25;;;18.75;;
55067;SDS011;40965;52.368;9.712;2023-04-23T03:30:25;23.70;;;18.02;;
55067;SDS011;40965;52.368;9.712;2023-04-23T03:32:54;22.48;;;17.65;;
55067;SDS011;40965;52.368;9.712;2023-04-23T03:35:22;24.52;;;18.33;;
55067;SDS011;40965;52.368;9.712;2023-04-23T03:37:49;27.90;;;19.00;;
55067;SDS011;40965;52.368;9.712;2023-04-23T03:40:16;26.00;;;19.02;;
55067;SDS011;40965;52.368;9.712;2023-04-23T03:42:43;26.40;;;20.02;;
55067;SDS011;40965;52.368;9.712;2023-04-23T03:45:10;24.77;;;18.42;;
55067;SDS011;40965;52.368;9.712;2023-04-23T03:47:37;25.65;;;19.10;;
55067;SDS011;40965;52.368;9.712;2023-04-23T03:50:05;26.23;;;19.77;;
55067;SDS011;40965;52.368;9.712;2023-04-23T03:52:33;27.95;;;20.05;;
55067;SDS011;40965;52.368;9.712;2023-04-23T03:55:01;22.63;;;18.17;;
55067;SDS011;40965;52.368;9.712;2023-04-23T03:57:27;32.20;;;19.50;;
55067;SDS011;40965;52.368;9.712;2023-04-23T03:59:54;26.23;;;20.75;;
55067;SDS011;40965;52.368;9.712;2023-04-23T04:02:21;27.90;;;19.50;;
55067;SDS011;40965;52.368;9.712;2023-04-23T04:04:47;30.20;;;20.60;;
55067;SDS011;40965;52.368;9.712;2023-04-23T04:07:15;30.52;;;21.33;;
55067;SDS011;40965;52.368;9.712;2023-04-23T04:09:43;32.22;;;22.83;;
55067;SDS011;40965;52.368;9.712;2023-04-23T04:12:11;29.63;;;21.55;;
55067;SDS011;40965;52.368;9.712;2023-04-23T04:14:37;29.63;;;22.17;;
55067;SDS011;40965;52.368;9.712;2023-04-23T04:17:04;32.10;;;23.08;;
55067;SDS011;40965;52.368;9.712;2023-04-23T04:19:30;31.83;;;21.92;;
55067;SDS011;40965;52.368;9.712;2023-04-23T04:21:57;34.97;;;22.80;;
55067;SDS011;40965;52.368;9.712;2023-04-23T04:24:23;35.38;;;23.48;;
55067;SDS011;40965;52.368;9.712;2023-04-23T04:26:56;33.38;;;22.00;;
55067;SDS011;40965;52.368;9.712;2023-04-23T04:29:24;29.55;;;20.88;;
55067;SDS011;40965;52.368;9.712;2023-04-23T04:31:54;36.15;;;23.48;;
55067;SDS011;40965;52.368;9.712;2023-04-23T04:34:21;32.03;;;21.05;;
55067;SDS011;40965;52.368;9.712;2023-04-23T04:36:48;35.15;;;22.95;;
55067;SDS011;40965;52.368;9.712;2023-04-23T04:39:15;32.15;;;22.55;;
55067;SDS011;40965;52.368;9.712;2023-04-23T04:41:43;33.88;;;21.50;;
55067;SDS011;40965;52.368;9.712;2023-04-23T04:44:09;31.25;;;22.35;;
55067;SDS011;40965;52.368;9.712;2023-04-23T04:46:36;31.85;;;22.02;;
55067;SDS011;40965;52.368;9.712;2023-04-23T04:49:10;34.50;;;23.13;;
55067;SDS011;40965;52.368;9.712;2023-04-23T04:51:37;33.17;;;22.95;;
55067;SDS011;40965;52.368;9.712;2023-04-23T04:54:05;32.80;;;23.02;;
55067;SDS011;40965;52.368;9.712;2023-04-23T04:56:33;29.88;;;20.05;;
55067;SDS011;40965;52.368;9.712;2023-04-23T04:59:00;29.95;;;20.92;;
55067;SDS011;40965;52.368;9.712;2023-04-23T05:01:27;32.50;;;23.10;;
55067;SDS011;40965;52.368;9.712;2023-04-23T05:03:54;35.40;;;23.55;;
55067;SDS011;40965;52.368;9.712;2023-04-23T05:06:22;33.75;;;22.25;;
55067;SDS011;40965;52.368;9.712;2023-04-23T05:08:48;38.17;;;24.02;;
55067;SDS011;40965;52.368;9.712;2023-04-23T05:11:15;35.45;;;22.98;;
55067;SDS011;40965;52.368;9.712;2023-04-23T05:13:43;31.05;;;22.08;;
55067;SDS011;40965;52.368;9.712;2023-04-23T05:16:10;34.05;;;22.88;;
55067;SDS011;40965;52.368;9.712;2023-04-23T05:18:37;33.03;;;22.33;;
55067;SDS011;40965;52.368;9.712;2023-04-23T05:21:05;35.35;;;22.52;;
55067;SDS011;40965;52.368;9.712;2023-04-23T05:23:32;33.40;;;21.90;;
55067;SDS011;40965;52.368;9.712;2023-04-23T05:26:00;39.22;;;23.95;;
55067;SDS011;40965;52.368;9.712;2023-04-23T05:28:27;32.80;;;21.63;;
55067;SDS011;40965;52.368;9.712;2023-04-23T05:30:55;35.83;;;23.17;;
55067;SDS011;40965;52.368;9.712;2023-04-23T05:33:22;34.80;;;22.48;;
55067;SDS011;40965;52.368;9.712;2023-04-23T05:35:50;29.65;;;20.08;;
55067;SDS011;40965;52.368;9.712;2023-04-23T05:38:16;32.35;;;23.00;;
55067;SDS011;40965;52.368;9.712;2023-04-23T05:40:43;32.50;;;21.88;;
55067;SDS011;40965;52.368;9.712;2023-04-23T05:43:10;35.60;;;22.58;;
55067;SDS011;40965;52.368;9.712;2023-04-23T05:45:37;33.92;;;23.05;;
55067;SDS011;40965;52.368;9.712;2023-04-23T05:48:03;36.05;;;22.00;;
55067;SDS011;40965;52.368;9.712;2023-04-23T05:50:30;33.08;;;22.42;;
55067;SDS011;40965;52.368;9.712;2023-04-23T05:52:56;31.23;;;21.00;;
55067;SDS011;40965;52.368;9.712;2023-04-23T05:55:23;34.63;;;22.45;;
55067;SDS011;40965;52.368;9.712;2023-04-23T05:57:50;35.17;;;24.10;;
55067;SDS011;40965;52.368;9.712;2023-04-23T06:00:17;34.63;;;21.75;;
55067;SDS011;40965;52.368;9.712;2023-04-23T06:02:44;34.38;;;24.83;;
55067;SDS011;40965;52.368;9.712;2023-04-23T06:05:12;35.30;;;21.83;;
55067;SDS011;40965;52.368;9.712;2023-04-23T06:07:39;33.70;;;22.70;;
55067;SDS011;40965;52.368;9.712;2023-04-23T06:10:06;35.03;;;23.30;;
55067;SDS011;40965;52.368;9.712;2023-04-23T06:12:33;31.38;;;22.38;;
55067;SDS011;40965;52.368;9.712;2023-04-23T06:15:03;32.88;;;21.77;;
55067;SDS011;40965;52.368;9.712;2023-04-23T06:17:34;32.50;;;22.50;;
55067;SDS011;40965;52.368;9.712;2023-04-23T06:20:02;38.45;;;23.48;;
55067;SDS011;40965;52.368;9.712;2023-04-23T06:22:30;30.20;;;20.05;;
55067;SDS011;40965;52.368;9.712;2023-04-23T06:24:56;33.70;;;22.42;;
55067;SDS011;40965;52.368;9.712;2023-04-23T06:27:23;33.17;;;22.20;;
55067;SDS011;40965;52.368;9.712;2023-04-23T06:29:52;34.30;;;23.35;;
55067;SDS011;40965;52.368;9.712;2023-04-23T06:32:18;33.90;;;22.63;;
55067;SDS011;40965;52.368;9.712;2023-04-23T06:34:45;33.70;;;24.10;;
55067;SDS011;40965;52.368;9.712;2023-04-23T06:37:11;31.10;;;22.73;;
55067;SDS011;40965;52.368;9.712;2023-04-23T06:39:38;31.75;;;22.65;;
55067;SDS011;40965;52.368;9.712;2023-04-23T06:42:04;35.13;;;23.55;;
55067;SDS011;40965;52.368;9.712;2023-04-23T06:44:31;33.20;;;22.38;;
55067;SDS011;40965;52.368;9.712;2023-04-23T06:46:58;29.52;;;21.65;;
55067;SDS011;40965;52.368;9.712;2023-04-23T06:49:24;31.05;;;21.00;;
55067;SDS011;40965;52.368;9.712;2023-04-23T06:51:51;31.20;;;21.63;;
55067;SDS011;40965;52.368;9.712;2023-04-23T06:54:18;30.60;;;19.92;;
55067;SDS011;40965;52.368;9.712;2023-04-23T06:56:44;32.80;;;22.52;;
55067;SDS011;40965;52.368;9.712;2023-04-23T06:59:10;32.53;;;23.38;;
55067;SDS011;40965;52.368;9.712;2023-04-23T07:01:37;31.08;;;22.08;;
55067;SDS011;40965;52.368;9.712;2023-04-23T07:04:03;32.53;;;22.10;;
55067;SDS011;40965;52.368;9.712;2023-04-23T07:06:30;33.08;;;22.83;;
55067;SDS011;40965;52.368;9.712;2023-04-23T07:08:58;29.50;;;21.33;;
55067;SDS011;40965;52.368;9.712;2023-04-23T07:11:25;34.60;;;23.30;;
55067;SDS011;40965;52.368;9.712;2023-04-23T07:13:53;28.98;;;20.77;;
55067;SDS011;40965;52.368;9.712;2023-04-23T07:16:21;29.48;;;21.02;;
55067;SDS011;40965;52.368;9.712;2023-04-23T07:18:49;28.88;;;21.05;;
55067;SDS011;40965;52.368;9.712;2023-04-23T07:21:19;28.48;;;20.98;;
55067;SDS011;40965;52.368;9.712;2023-04-23T07:23:45;29.13;;;21.40;;
55067;SDS011;40965;52.368;9.712;2023-04-23T07:26:12;29.13;;;21.25;;
55067;SDS011;40965;52.368;9.712;2023-04-23T07:28:40;28.45;;;22.08;;
55067;SDS011;40965;52.368;9.712;2023-04-23T07:31:06;33.72;;;20.75;;
55067;SDS011;40965;52.368;9.712;2023-04-23T07:33:33;30.25;;;21.52;;
55067;SDS011;40965;52.368;9.712;2023-04-23T07:35:59;33.75;;;21.27;;
55067;SDS011;40965;52.368;9.712;2023-04-23T07:38:26;33.08;;;23.73;;
55067;SDS011;40965;52.368;9.712;2023-04-23T07:40:52;27.90;;;20.00;;
55067;SDS011;40965;52.368;9.712;2023-04-23T07:43:19;27.88;;;19.73;;
55067;SDS011;40965;52.368;9.712;2023-04-23T07:45:45;23.02;;;18.58;;
55067;SDS011;40965;52.368;9.712;2023-04-23T07:48:12;24.30;;;19.05;;
55067;SDS011;40965;52.368;9.712;2023-04-23T07:50:38;24.65;;;18.88;;
55067;SDS011;40965;52.368;9.712;2023-04-23T07:53:05;22.75;;;17.65;;
55067;SDS011;40965;52.368;9.712;2023-04-23T07:55:31;20.85;;;17.58;;
55067;SDS011;40965;52.368;9.712;2023-04-23T07:57:58;22.98;;;18.13;;
55067;SDS011;40965;52.368;9.712;2023-04-23T08:00:24;25.02;;;19.42;;
55067;SDS011;40965;52.368;9.712;2023-04-23T08:02:52;21.45;;;17.08;;
55067;SDS011;40965;52.368;9.712;2023-04-23T08:05:18;22.40;;;17.48;;
55067;SDS011;40965;52.368;9.712;2023-04-23T08:07:45;18.67;;;15.40;;
55067;SDS011;40965;52.368;9.712;2023-04-23T08:10:11;18.52;;;16.30;;
55067;SDS011;40965;52.368;9.712;2023-04-23T08:12:38;20.27;;;16.08;;
55067;SDS011;40965;52.368;9.712;2023-04-23T08:15:05;19.13;;;15.85;;
55067;SDS011;40965;52.368;9.712;2023-04-23T08:17:32;20.17;;;17.25;;
55067;SDS011;40965;52.368;9.712;2023-04-23T08:19:58;21.48;;;17.98;;
55067;SDS011;40965;52.368;9.712;2023-04-23T08:22:25;26.58;;;17.27;;
55067;SDS011;40965;52.368;9.712;2023-04-23T08:24:51;17.90;;;15.52;;
55067;SDS011;40965;52.368;9.712;2023-04-23T08:27:18;19.45;;;15.77;;
55067;SDS011;40965;52.368;9.712;2023-04-23T08:29:45;20.10;;;16.83;;
55067;SDS011;40965;52.368;9.712;2023-04-23T08:32:11;19.23;;;15.40;;
55067;SDS011;40965;52.368;9.712;2023-04-23T08:34:38;21.02;;;17.25;;
55067;SDS011;40965;52.368;9.712;2023-04-23T08:37:05;18.30;;;15.32;;
55067;SDS011;40965;52.368;9.712;2023-04-23T08:39:32;19.25;;;17.25;;
55067;SDS011;40965;52.368;9.712;2023-04-23T08:42:09;16.80;;;14.98;;
55067;SDS011;40965;52.368;9.712;2023-04-23T08:44:42;16.17;;;14.10;;
55067;SDS011;40965;52.368;9.712;2023-04-23T08:47:12;15.00;;;13.02;;
55067;SDS011;40965;52.368;9.712;2023-04-23T08:49:44;17.38;;;14.43;;
55067;SDS011;40965;52.368;9.712;2023-04-23T08:52:16;16.02;;;14.15;;
55067;SDS011;40965;52.368;9.712;2023-04-23T08:54:49;15.63;;;13.93;;
55067;SDS011;40965;52.368;9.712;2023-04-23T08:57:19;17.35;;;14.45;;
55067;SDS011;40965;52.368;9.712;2023-04-23T08:59:46;18.92;;;14.75;;
55067;SDS011;40965;52.368;9.712;2023-04-23T09:02:13;16.58;;;14.82;;
55067;SDS011;40965;52.368;9.712;2023-04-23T09:04:41;16.23;;;14.63;;
55067;SDS011;40965;52.368;9.712;2023-04-23T09:07:11;16.92;;;15.05;;
55067;SDS011;40965;52.368;9.712;2023-04-23T09:09:41;14.23;;;12.70;;
55067;SDS011;40965;52.368;9.712;2023-04-23T09:12:08;11.43;;;10.23;;
55067;SDS011;40965;52.368;9.712;2023-04-23T09:14:35;8.82;;;8.10;;
55067;SDS011;40965;52.368;9.712;2023-04-23T09:17:02;10.93;;;9.82;;
55067;SDS011;40965;52.368;9.712;2023-04-23T09:19:29;11.68;;;10.48;;
55067;SDS011;40965;52.368;9.712;2023-04-23T09:21:56;9.70;;;8.85;;
55067;SDS011;40965;52.368;9.712;2023-04-23T09:24:25;10.65;;;9.60;;
55067;SDS011;40965;52.368;9.712;2023-04-23T09:26:52;12.32;;;11.07;;
55067;SDS011;40965;52.368;9.712;2023-04-23T09:29:19;11.77;;;10.68;;
55067;SDS011;40965;52.368;9.712;2023-04-23T09:31:49;11.82;;;10.63;;
55067;SDS011;40965;52.368;9.712;2023-04-23T09:34:17;10.55;;;9.55;;
55067;SDS011;40965;52.368;9.712;2023-04-23T09:36:47;11.32;;;10.15;;
55067;SDS011;40965;52.368;9.712;2023-04-23T09:39:16;10.52;;;9.52;;
55067;SDS011;40965;52.368;9.712;2023-04-23T09:41:46;12.63;;;11.25;;
55067;SDS011;40965;52.368;9.712;2023-04-23T09:44:16;10.75;;;9.82;;
55067;SDS011;40965;52.368;9.712;2023-04-23T09:46:46;8.48;;;7.68;;
55067;SDS011;40965;52.368;9.712;2023-04-23T09:49:13;9.02;;;8.23;;
55067;SDS011;40965;52.368;9.712;2023-04-23T09:51:47;9.43;;;8.63;;
55067;SDS011;40965;52.368;9.712;2023-04-23T09:54:21;9.07;;;8.20;;
55067;SDS011;40965;52.368;9.712;2023-04-23T09:56:53;7.72;;;7.03;;
55067;SDS011;40965;52.368;9.712;2023-04-23T09:59:21;8.18;;;7.47;;
55067;SDS011;40965;52.368;9.712;2023-04-23T10:02:00;9.15;;;8.25;;
55067;SDS011;40965;52.368;9.712;2023-04-23T10:04:29;10.15;;;9.25;;
55067;SDS011;40965;52.368;9.712;2023-04-23T10:06:56;9.18;;;8.27;;
55067;SDS011;40965;52.368;9.712;2023-04-23T10:09:28;8.68;;;7.88;;
55067;SDS011;40965;52.368;9.712;2023-04-23T10:11:56;8.73;;;7.70;;
55067;SDS011;40965;52.368;9.712;2023-04-23T10:14:26;7.72;;;7.13;;
55067;SDS011;40965;52.368;9.712;2023-04-23T10:16:57;9.43;;;8.43;;
55067;SDS011;40965;52.368;9.712;2023-04-23T10:19:26;9.05;;;8.23;;
55067;SDS011;40965;52.368;9.712;2023-04-23T10:21:57;9.07;;;8.35;;
55067;SDS011;40965;52.368;9.712;2023-04-23T10:24:32;8.27;;;7.47;;
55067;SDS011;40965;52.368;9.712;2023-04-23T10:27:02;9.27;;;8.45;;
55067;SDS011;40965;52.368;9.712;2023-04-23T10:29:30;8.55;;;7.75;;
55067;SDS011;40965;52.368;9.712;2023-04-23T10:32:03;8.10;;;7.38;;
55067;SDS011;40965;52.368;9.712;2023-04-23T10:34:32;7.90;;;7.20;;
55067;SDS011;40965;52.368;9.712;2023-04-23T10:36:59;8.25;;;7.53;;
55067;SDS011;40965;52.368;9.712;2023-04-23T10:39:27;7.68;;;7.07;;
55067;SDS011;40965;52.368;9.712;2023-04-23T10:41:57;8.90;;;6.97;;
55067;SDS011;40965;52.368;9.712;2023-04-23T10:44:32;13.05;;;11.82;;
55067;SDS011;40965;52.368;9.712;2023-04-23T10:47:03;8.45;;;7.55;;
55067;SDS011;40965;52.368;9.712;2023-04-23T10:49:31;6.85;;;6.25;;
55067;SDS011;40965;52.368;9.712;2023-04-23T10:52:03;6.40;;;5.88;;
55067;SDS011;40965;52.368;9.712;2023-04-23T10:54:40;6.65;;;6.05;;
55067;SDS011;40965;52.368;9.712;2023-04-23T10:57:14;6.90;;;6.28;;
55067;SDS011;40965;52.368;9.712;2023-04-23T10:59:49;6.38;;;5.88;;
55067;SDS011;40965;52.368;9.712;2023-04-23T11:02:18;6.80;;;6.13;;
55067;SDS011;40965;52.368;9.712;2023-04-23T11:04:46;6.57;;;6.05;;
55067;SDS011;40965;52.368;9.712;2023-04-23T11:07:20;6.72;;;6.00;;
55067;SDS011;40965;52.368;9.712;2023-04-23T11:09:58;5.50;;;5.00;;
55067;SDS011;40965;52.368;9.712;2023-04-23T11:14:55;6.10;;;5.10;;
55067;SDS011;40965;52.368;9.712;2023-04-23T11:22:48;7.47;;;6.30;;
55067;SDS011;40965;52.368;9.712;2023-04-23T11:25:25;5.88;;;5.13;;
55067;SDS011;40965;52.368;9.712;2023-04-23T11:27:56;6.93;;;6.22;;
55067;SDS011;40965;52.368;9.712;2023-04-23T11:30:24;6.47;;;5.82;;
55067;SDS011;40965;52.368;9.712;2023-04-23T11:33:01;5.13;;;4.72;;
55067;SDS011;40965;52.368;9.712;2023-04-23T11:35:32;4.22;;;3.83;;
55067;SDS011;40965;52.368;9.712;2023-04-23T11:38:09;6.13;;;5.38;;
55067;SDS011;40965;52.368;9.712;2023-04-23T11:40:37;6.28;;;4.68;;
55067;SDS011;40965;52.368;9.712;2023-04-23T11:43:06;5.95;;;5.40;;
55067;SDS011;40965;52.368;9.712;2023-04-23T11:45:43;4.80;;;4.30;;
55067;SDS011;40965;52.368;9.712;2023-04-23T11:48:11;4.15;;;3.53;;
55067;SDS011;40965;52.368;9.712;2023-04-23T11:50:37;3.92;;;3.63;;
55067;SDS011;40965;52.368;9.712;2023-04-23T11:53:07;4.18;;;3.78;;
55067;SDS011;40965;52.368;9.712;2023-04-23T11:55:36;4.57;;;4.25;;
55067;SDS011;40965;52.368;9.712;2023-04-23T11:58:07;4.78;;;3.80;;
55067;SDS011;40965;52.368;9.712;2023-04-23T12:00:34;3.15;;;2.95;;
55067;SDS011;40965;52.368;9.712;2023-04-23T12:03:02;3.80;;;3.50;;
55067;SDS011;40965;52.368;9.712;2023-04-23T12:05:33;3.70;;;3.45;;
55067;SDS011;40965;52.368;9.712;2023-04-23T12:08:11;4.10;;;3.70;;
55067;SDS011;40965;52.368;9.712;2023-04-23T12:10:44;5.88;;;4.13;;
55067;SDS011;40965;52.368;9.712;2023-04-23T12:13:28;6.03;;;3.42;;
55067;SDS011;40965;52.368;9.712;2023-04-23T12:16:03;5.53;;;3.50;;
55067;SDS011;40965;52.368;9.712;2023-04-23T12:18:31;2.95;;;2.70;;
55067;SDS011;40965;52.368;9.712;2023-04-23T12:21:06;2.95;;;2.70;;
55067;SDS011;40965;52.368;9.712;2023-04-23T12:23:35;4.45;;;4.00;;
55067;SDS011;40965;52.368;9.712;2023-04-23T12:26:03;3.30;;;3.10;;
55067;SDS011;40965;52.368;9.712;2023-04-23T12:31:20;4.85;;;3.97;;
55067;SDS011;40965;52.368;9.712;2023-04-23T12:34:05;3.97;;;3.58;;
55067;SDS011;40965;52.368;9.712;2023-04-23T12:36:34;3.13;;;2.92;;
55067;SDS011;40965;52.368;9.712;2023-04-23T12:39:21;6.03;;;4.03;;
55067;SDS011;40965;52.368;9.712;2023-04-23T12:41:58;3.60;;;3.40;;
55067;SDS011;40965;52.368;9.712;2023-04-23T12:44:35;8.10;;;4.60;;
55067;SDS011;40965;52.368;9.712;2023-04-23T12:47:04;5.95;;;4.68;;
55067;SDS011;40965;52.368;9.712;2023-04-23T12:49:38;4.55;;;3.97;;
55067;SDS011;40965;52.368;9.712;2023-04-23T12:52:06;8.57;;;5.50;;
55067;SDS011;40965;52.368;9.712;2023-04-23T12:54:34;6.22;;;5.00;;
55067;SDS011;40965;52.368;9.712;2023-04-23T12:57:05;5.43;;;4.28;;
55067;SDS011;40965;52.368;9.712;2023-04-23T12:59:36;4.28;;;3.55;;
55067;SDS011;40965;52.368;9.712;2023-04-23T13:02:02;3.90;;;3.60;;
55067;SDS011;40965;52.368;9.712;2023-04-23T13:04:31;4.93;;;3.88;;
55067;SDS011;40965;52.368;9.712;2023-04-23T13:06:58;3.60;;;3.30;;
55067;SDS011;40965;52.368;9.712;2023-04-23T13:09:26;4.35;;;3.72;;
55067;SDS011;40965;52.368;9.712;2023-04-23T13:11:54;4.40;;;4.05;;
55067;SDS011;40965;52.368;9.712;2023-04-23T13:14:21;3.85;;;3.58;;
55067;SDS011;40965;52.368;9.712;2023-04-23T13:16:47;4.55;;;3.38;;
55067;SDS011;40965;52.368;9.712;2023-04-23T13:19:16;3.42;;;3.13;;
55067;SDS011;40965;52.368;9.712;2023-04-23T13:21:43;4.93;;;3.35;;
55067;SDS011;40965;52.368;9.712;2023-04-23T13:24:10;2.97;;;2.78;;
55067;SDS011;40965;52.368;9.712;2023-04-23T13:26:37;2.50;;;2.30;;
55067;SDS011;40965;52.368;9.712;2023-04-23T13:29:03;2.95;;;2.38;;
55067;SDS011;40965;52.368;9.712;2023-04-23T13:31:30;5.55;;;3.22;;
55067;SDS011;40965;52.368;9.712;2023-04-23T13:33:57;5.30;;;3.75;;
55067;SDS011;40965;52.368;9.712;2023-04-23T13:36:25;6.25;;;3.72;;
55067;SDS011;40965;52.368;9.712;2023-04-23T13:38:51;7.85;;;3.50;;
55067;SDS011;40965;52.368;9.712;2023-04-23T13:41:18;7.47;;;3.70;;
55067;SDS011;40965;52.368;9.712;2023-04-23T13:43:44;2.63;;;2.00;;
55067;SDS011;40965;52.368;9.712;2023-04-23T13:46:11;1.70;;;1.52;;
55067;SDS011;40965;52.368;9.712;2023-04-23T13:48:38;6.68;;;2.28;;
55067;SDS011;40965;52.368;9.712;2023-04-23T13:51:04;1.77;;;1.52;;
55067;SDS011;40965;52.368;9.712;2023-04-23T13:53:31;3.08;;;1.77;;
55067;SDS011;40965;52.368;9.712;2023-04-23T13:55:58;2.70;;;1.40;;
55067;SDS011;40965;52.368;9.712;2023-04-23T13:58:25;2.08;;;1.17;;
55067;SDS011;40965;52.368;9.712;2023-04-23T14:00:52;3.10;;;1.42;;
55067;SDS011;40965;52.368;9.712;2023-04-23T14:03:21;2.85;;;1.73;;
55067;SDS011;40965;52.368;9.712;2023-04-23T14:05:47;3.53;;;1.52;;
55067;SDS011;40965;52.368;9.712;2023-04-23T14:08:14;2.85;;;1.42;;
55067;SDS011;40965;52.368;9.712;2023-04-23T14:10:40;2.65;;;1.63;;
55067;SDS011;40965;52.368;9.712;2023-04-23T14:13:07;2.38;;;2.10;;
55067;SDS011;40965;52.368;9.712;2023-04-23T14:15:34;2.17;;;2.00;;
55067;SDS011;40965;52.368;9.712;2023-04-23T14:18:00;2.75;;;1.52;;
55067;SDS011;40965;52.368;9.712;2023-04-23T14:20:27;3.78;;;1.75;;
55067;SDS011;40965;52.368;9.712;2023-04-23T14:23:00;1.77;;;1.58;;
55067;SDS011;40965;52.368;9.712;2023-04-23T14:25:34;1.63;;;1.55;;
55067;SDS011;40965;52.368;9.712;2023-04-23T14:31:05;2.55;;;1.33;;
55067;SDS011;40965;52.368;9.712;2023-04-23T14:33:32;2.15;;;2.00;;
55067;SDS011;40965;52.368;9.712;2023-04-23T14:35:58;1.73;;;1.63;;
55067;SDS011;40965;52.368;9.712;2023-04-23T14:38:25;2.38;;;1.75;;
55067;SDS011;40965;52.368;9.712;2023-04-23T14:40:52;2.22;;;2.00;;
55067;SDS011;40965;52.368;9.712;2023-04-23T14:43:18;1.90;;;1.80;;
55067;SDS011;40965;52.368;9.712;2023-04-23T14:45:45;2.03;;;1.92;;
55067;SDS011;40965;52.368;9.712;2023-04-23T14:48:12;3.33;;;1.40;;
55067;SDS011;40965;52.368;9.712;2023-04-23T14:50:38;2.35;;;1.63;;
55067;SDS011;40965;52.368;9.712;2023-04-23T14:53:05;1.88;;;1.77;;